createdAt,value
2018-08-09T00:00:02.138Z,85
2018-08-09T00:05:01.404Z,84.58
2018-08-09T00:10:01.681Z,85.13
2018-08-09T00:15:02.028Z,85.46
2018-08-09T00:20:01.371Z,86.07
2018-08-09T00:25:01.815Z,86.33
2018-08-09T00:30:02.216Z,86.67
2018-08-09T00:35:01.725Z,86.97
2018-08-09T00:40:02.122Z,87.11
2018-08-09T00:45:01.615Z,87.75
2018-08-09T00:50:02.216Z,87.46
2018-08-09T00:55:01.595Z,87.62
2018-08-09T01:00:01.927Z,87.52
2018-08-09T01:05:01.338Z,87.91
2018-08-09T01:10:01.749Z,88.15
2018-08-09T01:15:02.052Z,87.93
2018-08-09T01:20:01.461Z,88.07
2018-08-09T01:25:02.141Z,88.1
2018-08-09T01:30:01.462Z,88.38
2018-08-09T01:35:01.934Z,88.79
2018-08-09T01:40:01.265Z,88.84
2018-08-09T01:45:01.618Z,89.83
2018-08-09T01:50:02.008Z,89.94
2018-08-09T01:55:01.399Z,89.81
2018-08-09T02:00:01.714Z,90.18
2018-08-09T02:05:02.406Z,90.1
2018-08-09T02:10:02.109Z,89.71
2018-08-09T02:15:01.351Z,90.21
2018-08-09T02:20:01.742Z,90.17
2018-08-09T02:25:02.154Z,90.26
2018-08-09T02:30:01.569Z,89.65
2018-08-09T02:35:01.998Z,89.79
2018-08-09T02:40:01.692Z,88.55
2018-08-09T02:45:02.146Z,88.08
2018-08-09T02:50:01.406Z,87.62
2018-08-09T02:55:01.811Z,87.5
2018-08-09T03:00:02.166Z,87.46
2018-08-09T03:05:01.543Z,87.78
2018-08-09T03:10:01.795Z,87.85
2018-08-09T03:15:01.228Z,87.75
2018-08-09T03:20:01.560Z,87.86
2018-08-09T03:25:01.881Z,87.04
2018-08-09T03:30:02.183Z,86.91
2018-08-09T03:35:01.464Z,87.26
2018-08-09T03:40:01.842Z,87.67
2018-08-09T03:45:02.103Z,86.42
2018-08-09T03:50:01.366Z,86.52
2018-08-09T03:55:01.657Z,86.55
2018-08-09T04:00:01.946Z,86.81
2018-08-09T04:05:01.221Z,85.85
2018-08-09T04:10:01.471Z,86.61
2018-08-09T04:15:01.716Z,86.88
2018-08-09T04:20:02.202Z,86.85
2018-08-09T04:25:01.623Z,85.3
2018-08-09T04:30:02.021Z,84.63
2018-08-09T04:35:01.311Z,83.94
2018-08-09T04:40:02.169Z,83.37
2018-08-09T04:45:01.401Z,83.86
2018-08-09T04:50:01.781Z,82.83
2018-08-09T04:55:02.113Z,80.83
2018-08-09T05:00:01.388Z,80.43
2018-08-09T05:05:01.755Z,80.56
2018-08-09T05:10:01.986Z,81.21
2018-08-09T05:15:01.261Z,81.68
2018-08-09T05:20:01.644Z,80.7
2018-08-09T05:25:02.104Z,80.25
2018-08-09T05:30:01.360Z,81.34
2018-08-09T05:35:01.683Z,80.21
2018-08-09T05:40:02.011Z,80.47
2018-08-09T05:45:01.248Z,79.54
2018-08-09T05:50:01.540Z,79.77
2018-08-09T05:55:01.864Z,80.03
2018-08-09T06:00:02.130Z,79.76
2018-08-09T06:05:01.406Z,80.73
2018-08-09T06:10:01.676Z,79.78
2018-08-09T06:15:01.909Z,79.93
2018-08-09T06:20:01.210Z,80.16
2018-08-09T06:25:01.489Z,80.4
2018-08-09T06:30:01.763Z,80.21
2018-08-09T06:35:02.240Z,80.18
2018-08-09T06:40:01.609Z,79.7
2018-08-09T06:45:01.883Z,76.87
2018-08-09T06:50:02.300Z,77.65
2018-08-09T06:55:01.661Z,77.76
2018-08-09T07:00:01.912Z,76.62
2018-08-09T07:05:01.213Z,75.97
2018-08-09T07:10:01.460Z,75.01
2018-08-09T07:15:01.765Z,74.07
2018-08-09T07:20:02.129Z,72.69
2018-08-09T07:25:01.437Z,72.37
2018-08-09T07:30:01.705Z,73.6
2018-08-09T07:35:02.162Z,74.71
2018-08-09T07:40:01.531Z,75.42
2018-08-09T07:45:01.772Z,75.03
2018-08-09T07:50:02.044Z,74.01
2018-08-09T07:55:01.400Z,73.56
2018-08-09T08:00:01.688Z,72.87
2018-08-09T08:05:02.139Z,72.27
2018-08-09T08:10:01.476Z,70.59
2018-08-09T08:15:01.932Z,70.54
2018-08-09T08:20:01.352Z,69.72
2018-08-09T08:25:01.725Z,68.06
2018-08-09T08:30:02.054Z,66.85
2018-08-09T08:35:01.340Z,69.34
2018-08-09T08:40:01.667Z,69.18
2018-08-09T08:45:01.903Z,68.52
2018-08-09T08:50:01.241Z,69.29
2018-08-09T08:55:01.545Z,66.6
2018-08-09T09:00:01.847Z,65.26
2018-08-09T09:05:02.438Z,65.37
2018-08-09T09:10:01.786Z,65.77
2018-08-09T09:15:02.088Z,64.23
2018-08-09T09:20:01.357Z,62.33
2018-08-09T09:25:01.762Z,65.35
2018-08-09T09:30:02.026Z,64.46
2018-08-09T09:35:01.402Z,59.79
2018-08-09T09:40:01.847Z,59.49
2018-08-09T09:45:02.119Z,59.1
2018-08-09T09:50:01.385Z,58.91
2018-08-09T09:55:01.854Z,58.27
2018-08-09T10:00:01.291Z,58.23
2018-08-09T10:05:01.690Z,58.03
2018-08-09T10:10:01.962Z,56.77
2018-08-09T10:15:01.230Z,56.3
2018-08-09T10:20:01.533Z,56.32
2018-08-09T10:25:01.912Z,55.7
2018-08-09T10:30:01.353Z,55.62
2018-08-09T10:35:01.905Z,55.95
2018-08-09T10:40:02.194Z,56.29
2018-08-09T10:45:01.465Z,56.65
2018-08-09T10:50:01.892Z,55.67
2018-08-09T10:55:01.200Z,56.08
2018-08-09T11:00:01.466Z,56.1
2018-08-09T11:05:01.994Z,55.99
2018-08-09T11:10:01.323Z,55.02
2018-08-09T11:15:01.696Z,54.16
2018-08-09T11:20:02.129Z,53.02
2018-08-09T11:25:01.486Z,52.67
2018-08-09T11:30:01.767Z,51.99
2018-08-09T11:35:02.142Z,51.72
2018-08-09T11:40:01.464Z,52.87
2018-08-09T11:45:01.731Z,53.25
2018-08-09T11:50:02.112Z,53.6
2018-08-09T11:55:01.483Z,53.51
2018-08-09T12:00:01.755Z,53.63
2018-08-09T12:05:02.141Z,53.53
2018-08-09T12:10:01.500Z,52.64
2018-08-09T12:15:01.933Z,53.65
2018-08-09T12:20:01.284Z,54.26
2018-08-09T12:25:01.673Z,54.72
2018-08-09T12:30:01.937Z,68.25
2018-08-09T12:35:01.274Z,75.85
2018-08-09T12:40:01.568Z,70.3
2018-08-09T12:45:01.825Z,74.23
2018-08-09T12:50:02.181Z,82.55
2018-08-09T12:55:01.584Z,86.29
2018-08-09T13:00:02.013Z,88.35
2018-08-09T13:05:01.450Z,90.1
2018-08-09T13:10:01.769Z,90.65
2018-08-09T13:15:02.021Z,91.71
2018-08-09T13:20:01.594Z,91.46
2018-08-09T13:25:01.927Z,91.5
2018-08-09T13:30:01.198Z,92.33
2018-08-09T13:35:01.477Z,92.9
2018-08-09T13:40:01.772Z,94.57
2018-08-09T13:45:02.009Z,95.63
2018-08-09T13:50:01.295Z,94.71
2018-08-09T13:55:01.578Z,94.35
2018-08-09T14:00:01.849Z,91.91
2018-08-09T14:05:02.276Z,90.1
2018-08-09T14:10:01.620Z,89.13
2018-08-09T14:15:01.880Z,89.34
2018-08-09T14:20:01.191Z,88.71
2018-08-09T14:25:01.769Z,89.68
2018-08-09T14:30:01.269Z,87.81
2018-08-09T14:35:01.664Z,87.69
2018-08-09T14:40:02.008Z,89.76
2018-08-09T14:45:01.271Z,90.65
2018-08-09T14:50:01.582Z,91.94
2018-08-09T14:55:01.912Z,92.69
2018-08-09T15:00:01.222Z,92.67
2018-08-09T15:05:01.545Z,93.42
2018-08-09T15:10:01.860Z,91.95
2018-08-09T15:15:02.177Z,86.77
2018-08-09T15:20:01.436Z,84.81
2018-08-09T15:25:01.913Z,84.95
2018-08-09T15:30:01.183Z,88.1
2018-08-09T15:35:01.520Z,88.97
2018-08-09T15:40:01.844Z,88.78
2018-08-09T15:45:02.085Z,88.83
2018-08-09T15:50:01.339Z,89.76
2018-08-09T15:55:01.647Z,91.35
2018-08-09T16:00:01.945Z,92.4
2018-08-09T16:05:01.225Z,91.82
2018-08-09T16:10:01.482Z,90.97
2018-08-09T16:15:01.856Z,89.92
2018-08-09T16:20:02.270Z,89.5
2018-08-09T16:25:01.692Z,89.9
2018-08-09T16:30:02.048Z,90.16
2018-08-09T16:35:01.442Z,90.07
2018-08-09T16:40:01.756Z,87.13
2018-08-09T16:45:02.008Z,81.76
2018-08-09T16:50:01.282Z,79.75
2018-08-09T16:55:01.581Z,77.58
2018-08-09T17:00:01.843Z,77.25
2018-08-09T17:05:02.284Z,76.08
2018-08-09T17:10:01.616Z,76.26
2018-08-09T17:15:01.889Z,75.65
2018-08-09T17:20:01.184Z,73.5
2018-08-09T17:25:01.501Z,75.7
2018-08-09T17:30:01.780Z,75.5
2018-08-09T17:35:02.193Z,74.78
2018-08-09T17:40:01.521Z,73.6
2018-08-09T17:45:01.832Z,72.95
2018-08-09T17:50:02.210Z,74.14
2018-08-09T17:55:01.531Z,73.81
2018-08-09T18:00:01.822Z,71.69
2018-08-09T18:05:02.401Z,72.29
2018-08-09T18:10:01.848Z,72.43
2018-08-09T18:15:02.129Z,72.93
2018-08-09T18:20:01.392Z,72.21
2018-08-09T18:25:01.680Z,76.18
2018-08-09T18:30:01.924Z,76.45
2018-08-09T18:35:01.221Z,76.88
2018-08-09T18:40:01.479Z,77.13
2018-08-09T18:45:01.752Z,76.95
2018-08-09T18:50:02.090Z,78.45
2018-08-09T18:55:01.428Z,79.32
2018-08-09T19:00:01.690Z,80.31
2018-08-09T19:05:02.187Z,81.15
2018-08-09T19:10:01.546Z,80.54
2018-08-09T19:15:01.935Z,81.76
2018-08-09T19:20:01.385Z,81.75
2018-08-09T19:25:01.706Z,82.36
2018-08-09T19:30:01.955Z,83.66
2018-08-09T19:35:01.244Z,83.66
2018-08-09T19:40:01.512Z,83.47
2018-08-09T19:45:01.843Z,84.33
2018-08-09T19:50:02.221Z,84
2018-08-09T19:55:01.559Z,83.48
2018-08-09T20:00:02.035Z,82.82
2018-08-09T20:05:01.662Z,82.57
2018-08-09T20:10:01.995Z,81.17
2018-08-09T20:15:01.643Z,78.03
2018-08-09T20:20:02.063Z,77.87
2018-08-09T20:25:01.344Z,78.04
2018-08-09T20:30:01.623Z,77.54
2018-08-09T20:35:02.117Z,77.07
2018-08-09T20:40:01.433Z,77.29
2018-08-09T20:45:01.731Z,77.7
2018-08-09T20:50:02.279Z,76.89
2018-08-09T20:55:01.666Z,77.6
2018-08-09T21:00:01.907Z,78.29
2018-08-09T21:05:01.192Z,77.18
2018-08-09T21:10:01.453Z,77.14
2018-08-09T21:15:01.773Z,75.23
2018-08-09T21:20:02.100Z,73.13
2018-08-09T21:25:01.502Z,73.27
2018-08-09T21:30:01.818Z,73.5
2018-08-09T21:35:02.263Z,74.5
2018-08-09T21:40:01.657Z,75.14
2018-08-09T21:45:01.928Z,74.82
2018-08-09T21:50:01.189Z,74.48
2018-08-09T21:55:01.465Z,74.28
2018-08-09T22:00:01.721Z,73.38
2018-08-09T22:05:02.172Z,73.73
2018-08-09T22:10:01.519Z,73.82
2018-08-09T22:15:01.776Z,73.63
2018-08-09T22:20:02.105Z,73.72
2018-08-09T22:25:01.430Z,74.16
2018-08-09T22:30:01.673Z,74.99
2018-08-09T22:35:02.136Z,74.73
2018-08-09T22:40:01.481Z,75.13
2018-08-09T22:45:01.758Z,75.1
2018-08-09T22:50:02.130Z,75.09
2018-08-09T22:55:01.439Z,74.95
2018-08-09T23:00:01.718Z,75.37
2018-08-09T23:05:02.135Z,76.49
2018-08-09T23:10:01.529Z,76.89
2018-08-09T23:15:01.818Z,76.49
2018-08-09T23:20:02.220Z,76.82
2018-08-09T23:25:01.574Z,77
2018-08-09T23:30:01.861Z,76.71
2018-08-09T23:35:02.276Z,77.26
2018-08-09T23:40:01.634Z,76.98
2018-08-09T23:45:01.913Z,77.84
2018-08-09T23:50:01.221Z,83.58
2018-08-09T23:55:01.502Z,88.26
